Flight Track Log - Related Links

Times and Time Zones

All times are in EDT time to prevent confusion due to time zone crossing. See the N762NC flight status page for this flight to view local times or setup timezone preferences in your user account.


Time Position Orientation Groundspeed Altitude Reporting Facility
EDT Latitude Longitude Course Direction KTS MPH feet Rate Location/Type
Fri 12:13:40 PM 33.6500 -84.3833 270° West 152 175 2,600  Level Atlanta TRACON
Fri 12:14:40 PM 33.6667 -84.3167 73° East 246 283 4,100 1,895 Climbing Atlanta TRACON
Fri 12:15:34 PM 33.7333 -84.2833 23° Northeast 272 313 6,200 2,158 Climbing Atlanta TRACON
Fri 12:16:00 PM 33.6906 -84.9337 280° West  Level FlightAware Approximate
Fri 12:16:34 PM 33.8000 -84.3000 348° North 288 331 8,200  Level Atlanta TRACON
Fri 12:17:00 PM 33.7090 -85.0623 280° West  Level FlightAware Approximate
Fri 12:18:00 PM 33.7167 -85.1920 270° West  Level FlightAware Approximate
Fri 12:18:52 PM 33.8183 -84.5214 276° West 319 367 12,100  Level Atlanta Center
Fri 12:19:52 PM 33.8136 -84.6264 267° West 348 400 14,000 2,200 Climbing Atlanta Center
Fri 12:20:52 PM 33.8108 -84.7589 269° West 354 407 16,500 1,950 Climbing Atlanta Center
Fri 12:21:52 PM 33.7978 -84.8636 261° West 362 417 17,900 1,650 Climbing Atlanta Center
Fri 12:22:52 PM 33.7803 -84.9861 260° West 372 428 19,800 1,700 Climbing Atlanta Center
Fri 12:23:52 PM 33.7667 -85.1083 262° West 372 428 21,300 1,550 Climbing Atlanta Center
Fri 12:24:52 PM 33.7383 -85.2328 255° West 379 436 22,900 1,650 Climbing Atlanta Center
Fri 12:25:52 PM 33.7097 -85.3697 256° West 379 436 24,600 1,600 Climbing Atlanta Center
Fri 12:26:52 PM 33.7000 -85.4994 265° West 390 449 26,100 1,300 Climbing Atlanta Center
Fri 12:27:52 PM 33.6881 -85.6292 264° West 390 449 27,200 950 Climbing Atlanta Center
Fri 12:28:52 PM 33.6800 -85.7564 266° West 390 449 28,000 350 Climbing Atlanta Center
Fri 12:29:52 PM 33.6761 -85.8886 268° West 389 448 27,900  Descending Atlanta Center
Fri 12:30:52 PM 33.6800 -86.0283 272° West 402 463 28,000  Climbing Atlanta Center
Fri 12:31:52 PM 33.6903 -86.1683 275° West 421 484 27,900 -50 Descending Atlanta Center
Fri 12:32:52 PM 33.6983 -86.3058 274° West 421 484 27,900  Level Atlanta Center
Fri 12:33:52 PM 33.7019 -86.4433 272° West 421 484 27,900  Level Atlanta Center
Fri 12:34:52 PM 33.6950 -86.5831 267° West 421 484 27,900  Level Atlanta Center
Fri 12:35:52 PM 33.6794 -86.7197 262° West 421 484 27,900 35 Level Atlanta Center
Fri 12:37:42 PM 33.6819 -86.9747 271° West 430 495 28,000  Climbing Memphis Center
Fri 12:38:42 PM 33.7108 -87.1108 284° West 422 486 27,900 -50 Descending Memphis Center
Fri 12:39:42 PM 33.7372 -87.2497 283° West 428 493 27,900  Level Memphis Center
Fri 12:40:42 PM 33.7678 -87.3936 284° West 433 498 27,900  Level Memphis Center
Fri 12:41:42 PM 33.7939 -87.5228 284° West 433 498 27,900  Level Memphis Center
Fri 12:42:42 PM 33.8222 -87.6719 283° West 449 517 27,900  Level Memphis Center
Fri 12:43:42 PM 33.8586 -87.8133 287° West 454 522 27,900  Level Memphis Center
Fri 12:44:42 PM 33.8953 -87.9747 285° West 448 516 27,900  Level Memphis Center
Fri 12:45:42 PM 33.9272 -88.1217 285° West 455 524 27,900  Level Memphis Center
Fri 12:46:42 PM 33.9611 -88.2761 285° West 461 531 27,900  Level Memphis Center
Fri 12:47:42 PM 33.9969 -88.4206 287° West 461 531 27,900  Level Memphis Center
Fri 12:48:42 PM 34.0283 -88.5703 284° West 461 531 27,900  Level Memphis Center
Fri 12:49:42 PM 34.0678 -88.7172 288° West 461 531 27,900  Level Memphis Center
Fri 12:50:42 PM 34.0989 -88.8647 284° West 456 525 27,900  Level Memphis Center
Fri 12:51:42 PM 34.1236 -89.0097 282° West 450 518 27,900  Level Memphis Center
Fri 12:52:42 PM 34.1375 -89.1450 277° West 450 518 27,900  Level Memphis Center
Fri 12:53:42 PM 34.1556 -89.2931 278° West 450 518 27,900  Level Memphis Center
Fri 12:54:42 PM 34.1733 -89.4408 278° West 445 512 27,900  Level Memphis Center
Fri 12:55:42 PM 34.1911 -89.5889 278° West 445 512 27,900  Level Memphis Center
Fri 12:56:42 PM 34.2044 -89.7369 276° West 445 512 27,900  Level Memphis Center
Fri 12:57:42 PM 34.2261 -89.9000 279° West 445 512 27,900  Level Memphis Center
Fri 12:58:42 PM 34.2433 -90.0506 278° West 445 512 27,900  Level Memphis Center
Fri 12:59:42 PM 34.2644 -90.1989 280° West 451 519 27,900 -450 Level Memphis Center
Fri 01:00:42 PM 34.2833 -90.3422 279° West 445 512 27,000 -1,400 Descending Memphis Center
Fri 01:01:42 PM 34.3000 -90.4878 278° West 445 512 25,100 -1,650 Descending Memphis Center
Fri 01:02:42 PM 34.3186 -90.6286 279° West 438 504 23,700 -1,700 Descending Memphis Center
Fri 01:03:42 PM 34.3389 -90.7697 280° West 423 487 21,700 -2,250 Descending Memphis Center
Fri 01:04:42 PM 34.3594 -90.8856 282° West 412 474 19,200 -2,900 Descending Memphis Center
Fri 01:05:42 PM 34.3714 -91.0164 276° West 402 463 15,900 -3,313 Descending Memphis Center
Fri 01:06:18 PM 34.3814 -91.1019 278° West 393 452 13,900 -3,200 Descending Memphis Center
Fri 01:07:12 PM 34.3953 -91.2206 278° West 382 440 11,100 -2,429 Descending Memphis Center
Fri 01:07:42 PM 34.4031 -91.2658 282° West 381 438 10,500 -733 Descending Memphis Center
Fri 01:08:42 PM 34.4147 -91.3819 277° West 360 414 10,000 -350 Descending Memphis Center
Fri 01:09:42 PM 34.4283 -91.5003 278° West 345 397 9,800 -1,000 Descending Memphis Center
Fri 01:10:42 PM 34.4400 -91.5936 279° West 305 351 8,000 -1,750 Descending Memphis Center
Fri 01:11:42 PM 34.4475 -91.6894 275° West 290 334 6,300 -1,350 Descending Memphis Center
Fri 01:12:42 PM 34.4547 -91.7853 275° West 285 328 5,300 -600 Descending Memphis Center
Fri 01:13:42 PM 34.4808 -91.8714 290° West 280 322 5,100 -200 Descending Memphis Center
Fri 01:14:42 PM 34.5089 -91.9575 292° West 280 322 4,900 -550 Descending Memphis Center
Fri 01:15:42 PM 34.5369 -92.0414 292° West 280 322 4,000 -600 Descending Memphis Center
Fri 01:16:12 PM 34.5489 -92.0894 287° West 272 313 4,000  Level Memphis Center
Fri 01:16:42 PM 34.5631 -92.1300 293° West 280 322 4,000 -467 Level Memphis Center
Fri 01:17:42 PM 34.6081 -92.1917 312° West 263 303 3,300 -900 Descending Memphis Center
Fri 01:18:42 PM 34.6469 -92.2378 316° Northwest 228 262 2,200 -900 Descending Memphis Center
Fri 01:19:42 PM 34.6817 -92.2764 318° Northwest 194 223 1,500 -650 Descending Memphis Center
Fri 01:20:42 PM 34.7092 -92.2594 27° Northeast 131 151 900 -600 Descending Memphis Center

Login

Don't have an account? Register now (free) for customized features, flight alerts, and more!